Aviation Digital Data Service (ADDS)

Output produced by TAFs form (1240 UTC 24 April 2014)
found at http://aviationweather.gov/adds/tafs/
 
KASE 241125Z 2412/2512 20004KT P6SM SKC 
     FM241700 34005KT P6SM SCT200 
     FM241900 31008G15KT P6SM BKN150 
     FM250100 20005KT P6SM SCT200